sensor_id;sensor_type;location;lat;lon;timestamp;temperature;humidity
40952;DHT22;26682;51.660;19.338;2022-07-26T00:00:40;19.80;99.90
40952;DHT22;26682;51.660;19.338;2022-07-26T00:02:27;19.70;99.90
40952;DHT22;26682;51.660;19.338;2022-07-26T00:04:12;19.70;99.90
40952;DHT22;26682;51.660;19.338;2022-07-26T00:05:59;19.70;99.90
40952;DHT22;26682;51.660;19.338;2022-07-26T00:07:45;19.70;99.90
40952;DHT22;26682;51.660;19.338;2022-07-26T00:09:31;19.70;99.90
40952;DHT22;26682;51.660;19.338;2022-07-26T00:11:17;19.70;99.90
40952;DHT22;26682;51.660;19.338;2022-07-26T00:13:03;19.70;99.90
40952;DHT22;26682;51.660;19.338;2022-07-26T00:14:50;19.70;99.90
40952;DHT22;26682;51.660;19.338;2022-07-26T00:16:36;19.70;99.90
40952;DHT22;26682;51.660;19.338;2022-07-26T00:18:22;19.60;99.90
40952;DHT22;26682;51.660;19.338;2022-07-26T00:20:08;19.60;99.90
40952;DHT22;26682;51.660;19.338;2022-07-26T00:21:54;19.60;99.90
40952;DHT22;26682;51.660;19.338;2022-07-26T00:23:59;19.60;99.90
40952;DHT22;26682;51.660;19.338;2022-07-26T00:25:45;19.60;99.90
40952;DHT22;26682;51.660;19.338;2022-07-26T00:27:31;19.60;99.90
40952;DHT22;26682;51.660;19.338;2022-07-26T00:29:17;19.60;99.90
40952;DHT22;26682;51.660;19.338;2022-07-26T00:31:03;19.60;99.90
40952;DHT22;26682;51.660;19.338;2022-07-26T00:32:50;19.60;99.90
40952;DHT22;26682;51.660;19.338;2022-07-26T00:34:37;19.50;99.90
40952;DHT22;26682;51.660;19.338;2022-07-26T00:36:23;19.50;99.90
40952;DHT22;26682;51.660;19.338;2022-07-26T00:38:09;19.50;99.90
40952;DHT22;26682;51.660;19.338;2022-07-26T00:39:55;19.50;99.90
40952;DHT22;26682;51.660;19.338;2022-07-26T00:41:41;19.50;99.90
40952;DHT22;26682;51.660;19.338;2022-07-26T00:43:27;19.40;99.90
40952;DHT22;26682;51.660;19.338;2022-07-26T00:45:15;19.40;99.90
40952;DHT22;26682;51.660;19.338;2022-07-26T00:47:03;19.40;99.90
40952;DHT22;26682;51.660;19.338;2022-07-26T00:48:48;19.30;99.90
40952;DHT22;26682;51.660;19.338;2022-07-26T00:50:35;19.30;99.90
40952;DHT22;26682;51.660;19.338;2022-07-26T00:52:21;19.30;99.90
40952;DHT22;26682;51.660;19.338;2022-07-26T00:54:07;19.30;99.90
40952;DHT22;26682;51.660;19.338;2022-07-26T00:55:53;19.30;99.90
40952;DHT22;26682;51.660;19.338;2022-07-26T00:57:39;19.30;99.90
40952;DHT22;26682;51.660;19.338;2022-07-26T00:59:25;19.30;99.90
40952;DHT22;26682;51.660;19.338;2022-07-26T01:01:11;19.30;99.90
40952;DHT22;26682;51.660;19.338;2022-07-26T01:02:57;19.20;99.90
40952;DHT22;26682;51.660;19.338;2022-07-26T01:04:45;19.20;99.90
40952;DHT22;26682;51.660;19.338;2022-07-26T01:06:31;19.20;99.90
40952;DHT22;26682;51.660;19.338;2022-07-26T01:08:17;19.20;99.90
40952;DHT22;26682;51.660;19.338;2022-07-26T01:10:05;19.10;99.90
40952;DHT22;26682;51.660;19.338;2022-07-26T01:11:51;19.10;99.90
40952;DHT22;26682;51.660;19.338;2022-07-26T01:13:45;19.10;99.90
40952;DHT22;26682;51.660;19.338;2022-07-26T01:15:30;19.10;99.90
40952;DHT22;26682;51.660;19.338;2022-07-26T01:17:16;19.10;99.90
40952;DHT22;26682;51.660;19.338;2022-07-26T01:19:02;19.10;99.90
40952;DHT22;26682;51.660;19.338;2022-07-26T01:20:49;19.10;99.90
40952;DHT22;26682;51.660;19.338;2022-07-26T01:22:35;19.00;99.90
40952;DHT22;26682;51.660;19.338;2022-07-26T01:24:21;19.10;99.90
40952;DHT22;26682;51.660;19.338;2022-07-26T01:26:07;19.00;99.90
40952;DHT22;26682;51.660;19.338;2022-07-26T01:27:53;19.00;99.90
40952;DHT22;26682;51.660;19.338;2022-07-26T01:29:39;19.00;99.90
40952;DHT22;26682;51.660;19.338;2022-07-26T01:31:25;19.00;99.90
40952;DHT22;26682;51.660;19.338;2022-07-26T01:33:11;19.00;99.90
40952;DHT22;26682;51.660;19.338;2022-07-26T01:34:57;19.00;99.90
40952;DHT22;26682;51.660;19.338;2022-07-26T01:36:43;19.00;99.90
40952;DHT22;26682;51.660;19.338;2022-07-26T01:38:29;19.00;99.90
40952;DHT22;26682;51.660;19.338;2022-07-26T01:40:15;18.90;99.90
40952;DHT22;26682;51.660;19.338;2022-07-26T01:42:00;18.90;99.90
40952;DHT22;26682;51.660;19.338;2022-07-26T01:43:47;18.90;99.90
40952;DHT22;26682;51.660;19.338;2022-07-26T01:45:33;18.90;99.90
40952;DHT22;26682;51.660;19.338;2022-07-26T01:47:19;18.90;99.90
40952;DHT22;26682;51.660;19.338;2022-07-26T01:49:05;18.90;99.90
40952;DHT22;26682;51.660;19.338;2022-07-26T01:50:52;18.80;99.90
40952;DHT22;26682;51.660;19.338;2022-07-26T01:52:38;18.80;99.90
40952;DHT22;26682;51.660;19.338;2022-07-26T01:54:24;18.90;99.90
40952;DHT22;26682;51.660;19.338;2022-07-26T01:56:14;18.80;99.90
40952;DHT22;26682;51.660;19.338;2022-07-26T01:57:59;18.90;99.90
40952;DHT22;26682;51.660;19.338;2022-07-26T01:59:46;18.80;99.90
40952;DHT22;26682;51.660;19.338;2022-07-26T02:01:31;18.80;99.90
40952;DHT22;26682;51.660;19.338;2022-07-26T02:03:18;18.80;99.90
40952;DHT22;26682;51.660;19.338;2022-07-26T02:05:05;18.80;99.90
40952;DHT22;26682;51.660;19.338;2022-07-26T02:06:51;18.80;99.90
40952;DHT22;26682;51.660;19.338;2022-07-26T02:08:37;18.80;99.90
40952;DHT22;26682;51.660;19.338;2022-07-26T02:10:23;18.80;99.90
40952;DHT22;26682;51.660;19.338;2022-07-26T02:12:09;18.80;99.90
40952;DHT22;26682;51.660;19.338;2022-07-26T02:13:55;18.80;99.90
40952;DHT22;26682;51.660;19.338;2022-07-26T02:15:41;18.80;99.90
40952;DHT22;26682;51.660;19.338;2022-07-26T02:17:27;18.80;99.90
40952;DHT22;26682;51.660;19.338;2022-07-26T02:19:13;18.80;99.90
40952;DHT22;26682;51.660;19.338;2022-07-26T02:21:00;18.80;99.90
40952;DHT22;26682;51.660;19.338;2022-07-26T02:22:46;18.80;99.90
40952;DHT22;26682;51.660;19.338;2022-07-26T02:24:33;18.80;99.90
40952;DHT22;26682;51.660;19.338;2022-07-26T02:26:19;18.80;99.90
40952;DHT22;26682;51.660;19.338;2022-07-26T02:28:05;18.80;99.90
40952;DHT22;26682;51.660;19.338;2022-07-26T02:29:51;18.80;99.90
40952;DHT22;26682;51.660;19.338;2022-07-26T02:31:37;18.90;99.90
40952;DHT22;26682;51.660;19.338;2022-07-26T02:33:23;18.90;99.90
40952;DHT22;26682;51.660;19.338;2022-07-26T02:35:10;18.90;99.90
40952;DHT22;26682;51.660;19.338;2022-07-26T02:36:56;18.90;99.90
40952;DHT22;26682;51.660;19.338;2022-07-26T02:38:42;18.90;99.90
40952;DHT22;26682;51.660;19.338;2022-07-26T02:40:28;18.90;99.90
40952;DHT22;26682;51.660;19.338;2022-07-26T02:42:14;18.90;99.90
40952;DHT22;26682;51.660;19.338;2022-07-26T02:44:01;18.90;99.90
40952;DHT22;26682;51.660;19.338;2022-07-26T02:45:46;18.90;99.90
40952;DHT22;26682;51.660;19.338;2022-07-26T02:47:32;18.90;99.90
40952;DHT22;26682;51.660;19.338;2022-07-26T02:49:19;18.90;99.90
40952;DHT22;26682;51.660;19.338;2022-07-26T02:51:05;19.00;99.90
40952;DHT22;26682;51.660;19.338;2022-07-26T02:52:52;19.00;99.90
40952;DHT22;26682;51.660;19.338;2022-07-26T02:54:38;19.00;99.90
40952;DHT22;26682;51.660;19.338;2022-07-26T02:56:24;19.00;99.90
40952;DHT22;26682;51.660;19.338;2022-07-26T02:58:10;19.00;99.90
40952;DHT22;26682;51.660;19.338;2022-07-26T02:59:56;19.00;99.90
40952;DHT22;26682;51.660;19.338;2022-07-26T03:01:42;19.00;99.90
40952;DHT22;26682;51.660;19.338;2022-07-26T03:03:28;19.00;99.90
40952;DHT22;26682;51.660;19.338;2022-07-26T03:05:15;19.00;99.90
40952;DHT22;26682;51.660;19.338;2022-07-26T03:07:01;19.00;99.90
40952;DHT22;26682;51.660;19.338;2022-07-26T03:08:47;19.00;99.90
40952;DHT22;26682;51.660;19.338;2022-07-26T03:10:33;19.00;99.90
40952;DHT22;26682;51.660;19.338;2022-07-26T03:12:19;19.00;99.90
40952;DHT22;26682;51.660;19.338;2022-07-26T03:14:05;19.00;99.90
40952;DHT22;26682;51.660;19.338;2022-07-26T03:15:51;19.00;99.90
40952;DHT22;26682;51.660;19.338;2022-07-26T03:17:38;19.00;99.90
40952;DHT22;26682;51.660;19.338;2022-07-26T03:19:24;19.00;99.90
40952;DHT22;26682;51.660;19.338;2022-07-26T03:21:10;19.00;99.90
40952;DHT22;26682;51.660;19.338;2022-07-26T03:22:56;19.00;99.90
40952;DHT22;26682;51.660;19.338;2022-07-26T03:24:42;19.10;99.90
40952;DHT22;26682;51.660;19.338;2022-07-26T03:26:28;19.10;99.90
40952;DHT22;26682;51.660;19.338;2022-07-26T03:28:13;19.10;99.90
40952;DHT22;26682;51.660;19.338;2022-07-26T03:29:59;19.10;99.90
40952;DHT22;26682;51.660;19.338;2022-07-26T03:31:46;19.10;99.90
40952;DHT22;26682;51.660;19.338;2022-07-26T03:33:32;19.10;99.90
40952;DHT22;26682;51.660;19.338;2022-07-26T03:35:18;19.10;99.90
40952;DHT22;26682;51.660;19.338;2022-07-26T03:37:04;19.10;99.90
40952;DHT22;26682;51.660;19.338;2022-07-26T03:38:50;19.10;99.90
40952;DHT22;26682;51.660;19.338;2022-07-26T03:40:36;19.20;99.90
40952;DHT22;26682;51.660;19.338;2022-07-26T03:42:22;19.20;99.90
40952;DHT22;26682;51.660;19.338;2022-07-26T03:44:08;19.20;99.90
40952;DHT22;26682;51.660;19.338;2022-07-26T03:45:54;19.20;99.90
40952;DHT22;26682;51.660;19.338;2022-07-26T03:47:41;19.30;99.90
40952;DHT22;26682;51.660;19.338;2022-07-26T03:49:26;19.30;99.90
40952;DHT22;26682;51.660;19.338;2022-07-26T03:51:12;19.30;99.90
40952;DHT22;26682;51.660;19.338;2022-07-26T03:52:58;19.30;99.90
40952;DHT22;26682;51.660;19.338;2022-07-26T03:54:44;19.30;99.90
40952;DHT22;26682;51.660;19.338;2022-07-26T03:56:30;19.40;99.90
40952;DHT22;26682;51.660;19.338;2022-07-26T03:58:16;19.40;99.90
40952;DHT22;26682;51.660;19.338;2022-07-26T04:00:04;19.50;99.90
40952;DHT22;26682;51.660;19.338;2022-07-26T04:01:53;19.40;99.90
40952;DHT22;26682;51.660;19.338;2022-07-26T04:03:39;19.50;99.90
40952;DHT22;26682;51.660;19.338;2022-07-26T04:05:25;19.60;99.90
40952;DHT22;26682;51.660;19.338;2022-07-26T04:07:11;19.60;99.90
40952;DHT22;26682;51.660;19.338;2022-07-26T04:08:56;19.70;99.90
40952;DHT22;26682;51.660;19.338;2022-07-26T04:10:46;19.70;99.90
40952;DHT22;26682;51.660;19.338;2022-07-26T04:12:33;19.80;99.90
40952;DHT22;26682;51.660;19.338;2022-07-26T04:14:18;19.90;99.90
40952;DHT22;26682;51.660;19.338;2022-07-26T04:16:06;20.00;99.90
40952;DHT22;26682;51.660;19.338;2022-07-26T04:17:52;20.10;99.90
40952;DHT22;26682;51.660;19.338;2022-07-26T04:19:38;20.10;99.90
40952;DHT22;26682;51.660;19.338;2022-07-26T04:21:24;20.10;99.90
40952;DHT22;26682;51.660;19.338;2022-07-26T04:23:11;20.20;99.90
40952;DHT22;26682;51.660;19.338;2022-07-26T04:24:56;20.20;99.90
40952;DHT22;26682;51.660;19.338;2022-07-26T04:26:42;20.30;99.90
40952;DHT22;26682;51.660;19.338;2022-07-26T04:28:28;20.30;99.90
40952;DHT22;26682;51.660;19.338;2022-07-26T04:30:14;20.30;99.90
40952;DHT22;26682;51.660;19.338;2022-07-26T04:32:00;20.30;99.90
40952;DHT22;26682;51.660;19.338;2022-07-26T04:33:46;20.30;99.90
40952;DHT22;26682;51.660;19.338;2022-07-26T04:35:32;20.30;99.90
40952;DHT22;26682;51.660;19.338;2022-07-26T04:37:18;20.30;99.90
40952;DHT22;26682;51.660;19.338;2022-07-26T04:39:04;20.30;99.90
40952;DHT22;26682;51.660;19.338;2022-07-26T04:40:51;20.30;99.90
40952;DHT22;26682;51.660;19.338;2022-07-26T04:42:37;20.30;99.90
40952;DHT22;26682;51.660;19.338;2022-07-26T04:44:23;20.30;99.90
40952;DHT22;26682;51.660;19.338;2022-07-26T04:46:10;20.20;99.90
40952;DHT22;26682;51.660;19.338;2022-07-26T04:47:56;20.30;99.90
40952;DHT22;26682;51.660;19.338;2022-07-26T04:49:42;20.30;99.90
40952;DHT22;26682;51.660;19.338;2022-07-26T04:51:28;20.30;99.90
40952;DHT22;26682;51.660;19.338;2022-07-26T04:53:14;20.30;99.90
40952;DHT22;26682;51.660;19.338;2022-07-26T04:55:00;20.30;99.90
40952;DHT22;26682;51.660;19.338;2022-07-26T04:56:46;20.20;99.90
40952;DHT22;26682;51.660;19.338;2022-07-26T04:58:32;20.30;99.90
40952;DHT22;26682;51.660;19.338;2022-07-26T05:00:19;20.30;99.90
40952;DHT22;26682;51.660;19.338;2022-07-26T05:02:08;20.30;99.90
40952;DHT22;26682;51.660;19.338;2022-07-26T05:03:54;20.30;99.90
40952;DHT22;26682;51.660;19.338;2022-07-26T05:05:41;20.20;99.90
40952;DHT22;26682;51.660;19.338;2022-07-26T05:07:27;20.30;99.90
40952;DHT22;26682;51.660;19.338;2022-07-26T05:09:13;20.30;99.90
40952;DHT22;26682;51.660;19.338;2022-07-26T05:10:59;20.30;99.90
40952;DHT22;26682;51.660;19.338;2022-07-26T05:12:46;20.30;99.90
40952;DHT22;26682;51.660;19.338;2022-07-26T05:14:32;20.30;99.90
40952;DHT22;26682;51.660;19.338;2022-07-26T05:16:18;20.40;99.90
40952;DHT22;26682;51.660;19.338;2022-07-26T05:18:08;20.40;99.90
40952;DHT22;26682;51.660;19.338;2022-07-26T05:19:54;20.40;99.90
40952;DHT22;26682;51.660;19.338;2022-07-26T05:21:40;20.50;99.90
40952;DHT22;26682;51.660;19.338;2022-07-26T05:23:26;20.50;99.90
40952;DHT22;26682;51.660;19.338;2022-07-26T05:25:12;20.50;99.90
40952;DHT22;26682;51.660;19.338;2022-07-26T05:26:59;20.60;99.90
40952;DHT22;26682;51.660;19.338;2022-07-26T05:28:45;20.60;99.90
40952;DHT22;26682;51.660;19.338;2022-07-26T05:30:31;20.60;99.90
40952;DHT22;26682;51.660;19.338;2022-07-26T05:32:17;20.70;99.90
40952;DHT22;26682;51.660;19.338;2022-07-26T05:34:03;20.70;99.90
40952;DHT22;26682;51.660;19.338;2022-07-26T05:35:49;20.70;99.90
40952;DHT22;26682;51.660;19.338;2022-07-26T05:37:35;20.80;99.90
40952;DHT22;26682;51.660;19.338;2022-07-26T05:39:21;20.80;99.90
40952;DHT22;26682;51.660;19.338;2022-07-26T05:41:08;20.80;99.90
40952;DHT22;26682;51.660;19.338;2022-07-26T05:42:54;20.90;99.90
40952;DHT22;26682;51.660;19.338;2022-07-26T05:44:40;21.00;99.90
40952;DHT22;26682;51.660;19.338;2022-07-26T05:46:26;21.10;99.90
40952;DHT22;26682;51.660;19.338;2022-07-26T05:48:12;21.20;99.90
40952;DHT22;26682;51.660;19.338;2022-07-26T05:50:13;21.30;99.90
40952;DHT22;26682;51.660;19.338;2022-07-26T05:51:59;21.40;99.90
40952;DHT22;26682;51.660;19.338;2022-07-26T05:53:45;21.50;99.90
40952;DHT22;26682;51.660;19.338;2022-07-26T05:55:31;21.60;99.90
40952;DHT22;26682;51.660;19.338;2022-07-26T05:57:17;21.70;99.90
40952;DHT22;26682;51.660;19.338;2022-07-26T05:59:03;21.80;99.90
40952;DHT22;26682;51.660;19.338;2022-07-26T06:00:49;21.90;99.90
40952;DHT22;26682;51.660;19.338;2022-07-26T06:02:34;21.90;99.90
40952;DHT22;26682;51.660;19.338;2022-07-26T06:04:22;21.90;99.90
40952;DHT22;26682;51.660;19.338;2022-07-26T06:06:08;21.80;99.90
40952;DHT22;26682;51.660;19.338;2022-07-26T06:07:53;21.80;99.90
40952;DHT22;26682;51.660;19.338;2022-07-26T06:09:40;21.90;99.90
40952;DHT22;26682;51.660;19.338;2022-07-26T06:11:25;22.00;99.90
40952;DHT22;26682;51.660;19.338;2022-07-26T06:13:11;22.10;99.90
40952;DHT22;26682;51.660;19.338;2022-07-26T06:14:58;22.20;99.90
40952;DHT22;26682;51.660;19.338;2022-07-26T06:16:45;22.20;99.90
40952;DHT22;26682;51.660;19.338;2022-07-26T06:18:31;22.10;99.90
40952;DHT22;26682;51.660;19.338;2022-07-26T06:20:17;22.20;99.90
40952;DHT22;26682;51.660;19.338;2022-07-26T06:22:03;22.30;99.90
40952;DHT22;26682;51.660;19.338;2022-07-26T06:23:49;22.40;99.90
40952;DHT22;26682;51.660;19.338;2022-07-26T06:25:36;22.40;99.90
40952;DHT22;26682;51.660;19.338;2022-07-26T06:27:22;22.50;99.90
40952;DHT22;26682;51.660;19.338;2022-07-26T06:29:08;22.70;99.90
40952;DHT22;26682;51.660;19.338;2022-07-26T06:30:57;22.80;99.90
40952;DHT22;26682;51.660;19.338;2022-07-26T06:32:43;22.90;99.90
40952;DHT22;26682;51.660;19.338;2022-07-26T06:34:32;23.00;99.90
40952;DHT22;26682;51.660;19.338;2022-07-26T06:36:21;23.00;99.90
40952;DHT22;26682;51.660;19.338;2022-07-26T06:38:07;23.00;99.90
40952;DHT22;26682;51.660;19.338;2022-07-26T06:39:53;22.90;99.90
40952;DHT22;26682;51.660;19.338;2022-07-26T06:41:39;22.80;99.90
40952;DHT22;26682;51.660;19.338;2022-07-26T06:43:25;22.90;99.90
40952;DHT22;26682;51.660;19.338;2022-07-26T06:45:11;23.00;99.90
40952;DHT22;26682;51.660;19.338;2022-07-26T06:46:57;22.90;99.90
40952;DHT22;26682;51.660;19.338;2022-07-26T06:48:43;22.90;99.90
40952;DHT22;26682;51.660;19.338;2022-07-26T06:50:29;22.80;99.90
40952;DHT22;26682;51.660;19.338;2022-07-26T06:52:15;22.60;99.90
40952;DHT22;26682;51.660;19.338;2022-07-26T06:54:01;22.50;99.90
40952;DHT22;26682;51.660;19.338;2022-07-26T06:55:50;22.50;99.90
40952;DHT22;26682;51.660;19.338;2022-07-26T06:57:36;22.60;99.90
40952;DHT22;26682;51.660;19.338;2022-07-26T06:59:21;22.70;99.90
40952;DHT22;26682;51.660;19.338;2022-07-26T07:01:08;22.70;99.90
40952;DHT22;26682;51.660;19.338;2022-07-26T07:02:54;22.50;99.90
40952;DHT22;26682;51.660;19.338;2022-07-26T07:04:40;22.50;99.90
40952;DHT22;26682;51.660;19.338;2022-07-26T07:06:26;22.60;99.90
40952;DHT22;26682;51.660;19.338;2022-07-26T07:08:13;22.70;99.90
40952;DHT22;26682;51.660;19.338;2022-07-26T07:09:58;22.60;99.90
40952;DHT22;26682;51.660;19.338;2022-07-26T07:11:45;22.50;99.90
40952;DHT22;26682;51.660;19.338;2022-07-26T07:13:34;22.40;99.90
40952;DHT22;26682;51.660;19.338;2022-07-26T07:15:19;22.40;99.90
40952;DHT22;26682;51.660;19.338;2022-07-26T07:17:06;22.50;99.90
40952;DHT22;26682;51.660;19.338;2022-07-26T07:18:53;22.40;99.90
40952;DHT22;26682;51.660;19.338;2022-07-26T07:20:39;22.40;99.90
40952;DHT22;26682;51.660;19.338;2022-07-26T07:22:25;22.40;99.90
40952;DHT22;26682;51.660;19.338;2022-07-26T07:24:11;22.40;99.90
40952;DHT22;26682;51.660;19.338;2022-07-26T07:25:58;22.30;99.90
40952;DHT22;26682;51.660;19.338;2022-07-26T07:27:44;22.30;99.90
40952;DHT22;26682;51.660;19.338;2022-07-26T07:29:30;22.30;99.90
40952;DHT22;26682;51.660;19.338;2022-07-26T07:31:16;22.30;99.90
40952;DHT22;26682;51.660;19.338;2022-07-26T07:33:02;22.40;99.90
40952;DHT22;26682;51.660;19.338;2022-07-26T07:34:48;22.40;99.90
40952;DHT22;26682;51.660;19.338;2022-07-26T07:36:34;22.10;99.90
40952;DHT22;26682;51.660;19.338;2022-07-26T07:38:20;22.10;99.90
40952;DHT22;26682;51.660;19.338;2022-07-26T07:40:07;21.90;99.90
40952;DHT22;26682;51.660;19.338;2022-07-26T07:41:53;21.60;99.90
40952;DHT22;26682;51.660;19.338;2022-07-26T07:43:39;21.60;99.90
40952;DHT22;26682;51.660;19.338;2022-07-26T07:45:25;21.70;99.90
40952;DHT22;26682;51.660;19.338;2022-07-26T07:47:12;21.60;99.90
40952;DHT22;26682;51.660;19.338;2022-07-26T07:48:58;21.60;99.90
40952;DHT22;26682;51.660;19.338;2022-07-26T07:50:45;21.60;99.90
40952;DHT22;26682;51.660;19.338;2022-07-26T07:52:31;21.60;99.90
40952;DHT22;26682;51.660;19.338;2022-07-26T07:54:17;21.60;99.90
40952;DHT22;26682;51.660;19.338;2022-07-26T07:56:03;21.50;99.90
40952;DHT22;26682;51.660;19.338;2022-07-26T07:57:49;21.30;99.90
40952;DHT22;26682;51.660;19.338;2022-07-26T07:59:35;21.30;99.90
40952;DHT22;26682;51.660;19.338;2022-07-26T08:01:21;21.20;99.90
40952;DHT22;26682;51.660;19.338;2022-07-26T08:03:07;21.20;99.90
40952;DHT22;26682;51.660;19.338;2022-07-26T08:04:53;21.20;99.90
40952;DHT22;26682;51.660;19.338;2022-07-26T08:06:40;21.20;99.90
40952;DHT22;26682;51.660;19.338;2022-07-26T08:08:26;21.10;99.90
40952;DHT22;26682;51.660;19.338;2022-07-26T08:10:12;21.00;99.90
40952;DHT22;26682;51.660;19.338;2022-07-26T08:11:58;21.00;99.90
40952;DHT22;26682;51.660;19.338;2022-07-26T08:13:44;20.90;99.90
40952;DHT22;26682;51.660;19.338;2022-07-26T08:15:30;20.90;99.90
40952;DHT22;26682;51.660;19.338;2022-07-26T08:17:16;20.80;99.90
40952;DHT22;26682;51.660;19.338;2022-07-26T08:19:02;20.80;99.90
40952;DHT22;26682;51.660;19.338;2022-07-26T08:20:49;20.80;99.90
40952;DHT22;26682;51.660;19.338;2022-07-26T08:22:35;20.80;99.90
40952;DHT22;26682;51.660;19.338;2022-07-26T08:24:21;20.80;99.90
40952;DHT22;26682;51.660;19.338;2022-07-26T08:26:07;20.90;99.90
40952;DHT22;26682;51.660;19.338;2022-07-26T08:27:54;20.90;99.90
40952;DHT22;26682;51.660;19.338;2022-07-26T08:29:40;20.90;99.90
40952;DHT22;26682;51.660;19.338;2022-07-26T08:31:26;21.00;99.90
40952;DHT22;26682;51.660;19.338;2022-07-26T08:33:13;21.00;99.90
40952;DHT22;26682;51.660;19.338;2022-07-26T08:34:58;21.00;99.90
40952;DHT22;26682;51.660;19.338;2022-07-26T08:36:44;20.90;99.90
40952;DHT22;26682;51.660;19.338;2022-07-26T08:38:32;20.80;99.90
40952;DHT22;26682;51.660;19.338;2022-07-26T08:40:18;20.70;99.90
40952;DHT22;26682;51.660;19.338;2022-07-26T08:42:11;20.80;99.90
40952;DHT22;26682;51.660;19.338;2022-07-26T08:44:04;20.80;99.90
40952;DHT22;26682;51.660;19.338;2022-07-26T08:45:50;20.90;99.90
40952;DHT22;26682;51.660;19.338;2022-07-26T08:47:40;21.00;99.90
40952;DHT22;26682;51.660;19.338;2022-07-26T08:49:26;21.00;99.90
40952;DHT22;26682;51.660;19.338;2022-07-26T08:51:12;21.00;99.90
40952;DHT22;26682;51.660;19.338;2022-07-26T08:53:02;21.10;99.90
40952;DHT22;26682;51.660;19.338;2022-07-26T08:54:52;21.20;99.90
40952;DHT22;26682;51.660;19.338;2022-07-26T08:56:49;21.30;99.90
40952;DHT22;26682;51.660;19.338;2022-07-26T08:58:35;21.30;99.90
40952;DHT22;26682;51.660;19.338;2022-07-26T09:00:24;21.30;99.90
40952;DHT22;26682;51.660;19.338;2022-07-26T09:02:11;21.20;99.90
40952;DHT22;26682;51.660;19.338;2022-07-26T09:04:16;21.20;99.90
40952;DHT22;26682;51.660;19.338;2022-07-26T09:06:29;21.20;99.90
40952;DHT22;26682;51.660;19.338;2022-07-26T09:08:26;21.10;99.90
40952;DHT22;26682;51.660;19.338;2022-07-26T09:10:14;21.00;99.90
40952;DHT22;26682;51.660;19.338;2022-07-26T09:12:22;21.00;99.90
40952;DHT22;26682;51.660;19.338;2022-07-26T09:14:07;21.00;99.90
40952;DHT22;26682;51.660;19.338;2022-07-26T09:16:11;21.00;99.90
40952;DHT22;26682;51.660;19.338;2022-07-26T09:17:57;20.80;99.90
40952;DHT22;26682;51.660;19.338;2022-07-26T09:19:44;20.90;99.90
40952;DHT22;26682;51.660;19.338;2022-07-26T09:21:34;20.80;99.90
40952;DHT22;26682;51.660;19.338;2022-07-26T09:23:21;20.70;99.90
40952;DHT22;26682;51.660;19.338;2022-07-26T09:25:21;20.70;99.90
40952;DHT22;26682;51.660;19.338;2022-07-26T09:27:13;20.50;99.90
40952;DHT22;26682;51.660;19.338;2022-07-26T09:29:09;20.40;99.90
40952;DHT22;26682;51.660;19.338;2022-07-26T09:31:00;20.20;99.90
40952;DHT22;26682;51.660;19.338;2022-07-26T09:34:54;20.00;99.90
40952;DHT22;26682;51.660;19.338;2022-07-26T09:36:52;19.90;99.90
40952;DHT22;26682;51.660;19.338;2022-07-26T09:38:43;19.80;99.90
40952;DHT22;26682;51.660;19.338;2022-07-26T09:40:33;19.70;99.90
40952;DHT22;26682;51.660;19.338;2022-07-26T09:42:21;19.60;99.90
40952;DHT22;26682;51.660;19.338;2022-07-26T09:44:24;19.50;99.90
40952;DHT22;26682;51.660;19.338;2022-07-26T09:46:11;19.50;99.90
40952;DHT22;26682;51.660;19.338;2022-07-26T09:47:57;19.40;99.90
40952;DHT22;26682;51.660;19.338;2022-07-26T09:49:43;19.50;99.90
40952;DHT22;26682;51.660;19.338;2022-07-26T09:51:42;19.50;99.90
40952;DHT22;26682;51.660;19.338;2022-07-26T09:53:40;19.40;99.90
40952;DHT22;26682;51.660;19.338;2022-07-26T09:55:27;19.40;99.90
40952;DHT22;26682;51.660;19.338;2022-07-26T09:57:18;19.30;99.90
40952;DHT22;26682;51.660;19.338;2022-07-26T09:59:04;19.30;99.90
40952;DHT22;26682;51.660;19.338;2022-07-26T10:00:50;19.30;99.90
40952;DHT22;26682;51.660;19.338;2022-07-26T10:02:36;19.30;99.90
40952;DHT22;26682;51.660;19.338;2022-07-26T10:04:22;19.30;99.90
40952;DHT22;26682;51.660;19.338;2022-07-26T10:06:08;19.30;99.90
40952;DHT22;26682;51.660;19.338;2022-07-26T10:07:54;19.40;99.90
40952;DHT22;26682;51.660;19.338;2022-07-26T10:09:56;19.30;99.90
40952;DHT22;26682;51.660;19.338;2022-07-26T10:11:48;19.40;99.90
40952;DHT22;26682;51.660;19.338;2022-07-26T10:13:35;19.40;99.90
40952;DHT22;26682;51.660;19.338;2022-07-26T10:15:42;19.30;99.90
40952;DHT22;26682;51.660;19.338;2022-07-26T10:19:37;19.20;99.90
40952;DHT22;26682;51.660;19.338;2022-07-26T10:21:28;19.20;99.90
40952;DHT22;26682;51.660;19.338;2022-07-26T10:27:05;19.10;99.90
40952;DHT22;26682;51.660;19.338;2022-07-26T10:28:51;19.10;99.90
40952;DHT22;26682;51.660;19.338;2022-07-26T10:30:37;19.10;99.90
40952;DHT22;26682;51.660;19.338;2022-07-26T10:32:24;19.00;99.90
40952;DHT22;26682;51.660;19.338;2022-07-26T10:34:10;19.10;99.90
40952;DHT22;26682;51.660;19.338;2022-07-26T10:35:56;19.00;99.90
40952;DHT22;26682;51.660;19.338;2022-07-26T10:37:57;19.10;99.90
40952;DHT22;26682;51.660;19.338;2022-07-26T10:39:43;19.00;99.90
40952;DHT22;26682;51.660;19.338;2022-07-26T10:41:34;19.00;99.90
40952;DHT22;26682;51.660;19.338;2022-07-26T10:43:21;19.00;99.90
40952;DHT22;26682;51.660;19.338;2022-07-26T10:45:18;19.00;99.90
40952;DHT22;26682;51.660;19.338;2022-07-26T10:47:09;19.10;99.90
40952;DHT22;26682;51.660;19.338;2022-07-26T10:49:04;19.10;99.90
40952;DHT22;26682;51.660;19.338;2022-07-26T10:50:52;19.10;99.90
40952;DHT22;26682;51.660;19.338;2022-07-26T10:52:38;19.00;99.90
40952;DHT22;26682;51.660;19.338;2022-07-26T10:56:48;19.00;99.90
40952;DHT22;26682;51.660;19.338;2022-07-26T10:58:41;19.00;99.90
40952;DHT22;26682;51.660;19.338;2022-07-26T11:00:27;19.10;99.90
40952;DHT22;26682;51.660;19.338;2022-07-26T11:02:21;19.10;99.90
40952;DHT22;26682;51.660;19.338;2022-07-26T11:04:22;19.20;99.90
40952;DHT22;26682;51.660;19.338;2022-07-26T11:06:14;19.30;99.90
40952;DHT22;26682;51.660;19.338;2022-07-26T11:08:04;19.40;99.90
40952;DHT22;26682;51.660;19.338;2022-07-26T11:09:56;19.30;99.90
40952;DHT22;26682;51.660;19.338;2022-07-26T11:11:42;19.30;99.90
40952;DHT22;26682;51.660;19.338;2022-07-26T11:13:31;19.20;99.90
40952;DHT22;26682;51.660;19.338;2022-07-26T11:15:18;19.20;99.90
40952;DHT22;26682;51.660;19.338;2022-07-26T11:17:04;19.20;99.90